Time;durP1;ratioP1;P1;durP2;ratioP2;P2;SDS_P1;SDS_P2;PMS_P1;PMS_P2;Temp;Humidity;BMP_temperature;BMP_pressure;BME280_temperature;BME280_humidity;BME280_pressure;Samples;Min_cycle;Max_cycle;Signal;HPM_P1;HPM_P2
2022/12/09 00:01:17;;;;;;;;;;;;;;;8.34;54.54;98089.81;4472131;32;20308;-92
2022/12/09 00:03:42;;;;;;;;;;;;;;;8.39;54.36;98088.59;4471060;32;20431;-91
2022/12/09 00:06:09;;;;;;;;;;;;;;;8.37;54.27;98093.09;4472200;32;20010;-91
2022/12/09 00:08:34;;;;;;;;;;;;;;;8.24;54.57;98098.19;4472031;32;20387;-90
2022/12/09 00:10:59;;;;;;;;;;;;;;;8.28;54.51;98094.44;4472099;32;20025;-91
2022/12/09 00:13:25;;;;;;;;;;;;;;;8.28;54.65;98078.72;4472047;32;20027;-91
2022/12/09 00:15:50;;;;;;;;;;;;;;;8.33;54.62;98065.34;4472106;32;19968;-91
2022/12/09 00:18:15;;;;;;;;;;;;;;;8.32;54.69;98068.06;4471973;32;19972;-92
2022/12/09 00:20:40;;;;;;;;;;;;;;;8.30;54.75;98069.91;4457900;32;20320;-92
2022/12/09 00:23:06;;;;;;;;;;;;;;;8.27;54.73;98074.41;4472046;32;20059;-92
2022/12/09 00:25:31;;;;;;;;;;;;;;;8.26;54.98;98090.22;4472069;32;19980;-90
2022/12/09 00:27:56;;;;;;;;;;;;;;;8.23;55.15;98101.75;4471953;32;19994;-91
2022/12/09 00:30:21;;;;;;;;;;;;;;;8.19;55.29;98099.38;4471968;32;20320;-90
2022/12/09 00:32:47;;;;;;;;;;;;;;;8.17;55.62;98096.84;4471994;32;20007;-90
2022/12/09 00:35:12;;;;;;;;;;;;;;;8.16;55.73;98102.19;4457841;32;19968;-90
2022/12/09 00:37:37;;;;;;;;;;;;;;;8.17;55.75;98102.09;4471825;32;20006;-90
2022/12/09 00:40:03;;;;;;;;;;;;;;;7.92;56.09;98112.25;4471935;32;19972;-90
2022/12/09 00:42:28;;;;;;;;;;;;;;;7.52;57.00;98112.63;4471672;32;19980;-90
2022/12/09 00:44:53;;;;;;;;;;;;;;;7.26;57.79;98113.97;4472008;32;19976;-90
2022/12/09 00:47:18;;;;;;;;;;;;;;;6.96;58.52;98113.78;4471815;32;19976;-90
2022/12/09 00:49:43;;;;;;;;;;;;;;;7.34;57.83;98105.72;4457762;32;20000;-90
2022/12/09 00:52:09;;;;;;;;;;;;;;;6.98;58.38;98107.53;4471841;32;19991;-92
2022/12/09 00:54:34;;;;;;;;;;;;;;;7.35;57.71;98103.03;4471778;32;19994;-90
2022/12/09 00:56:59;;;;;;;;;;;;;;;7.34;57.84;98100.47;4471823;32;19969;-90
2022/12/09 00:59:25;;;;;;;;;;;;;;;6.94;59.18;98102.56;4471781;32;20279;-90
2022/12/09 01:01:50;;;;;;;;;;;;;;;7.39;57.90;98104.53;4471800;32;19972;-90
2022/12/09 01:04:16;;;;;;;;;;;;;;;7.53;57.49;98101.19;4471666;32;19980;-90
2022/12/09 01:06:41;;;;;;;;;;;;;;;7.56;57.51;98113.31;4471783;32;20240;-90
2022/12/09 01:09:06;;;;;;;;;;;;;;;7.59;57.47;98105.25;4471693;32;19988;-90
2022/12/09 01:11:32;;;;;;;;;;;;;;;7.74;57.27;98114.09;4471675;32;20236;-90
2022/12/09 01:13:59;;;;;;;;;;;;;;;7.77;57.24;98112.16;4471728;32;20051;-90
2022/12/09 01:16:25;;;;;;;;;;;;;;;7.78;57.26;98118.25;4471056;32;20019;-90
2022/12/09 01:18:51;;;;;;;;;;;;;;;7.83;57.07;98116.22;4471650;32;20243;-90
2022/12/09 01:21:16;;;;;;;;;;;;;;;7.90;56.83;98108.84;4471657;32;19980;-90
2022/12/09 01:23:41;;;;;;;;;;;;;;;7.95;56.57;98101.59;4457471;32;19976;-91
2022/12/09 01:26:07;;;;;;;;;;;;;;;7.96;56.54;98109.38;4471601;32;19965;-90
2022/12/09 01:28:32;;;;;;;;;;;;;;;8.02;56.47;98106.41;4471656;32;19980;-92
2022/12/09 01:31:03;;;;;;;;;;;;;;;8.05;56.26;98101.00;4471578;32;20306;-91
2022/12/09 01:33:29;;;;;;;;;;;;;;;8.08;56.25;98102.63;4471704;32;20308;-91
2022/12/09 01:35:54;;;;;;;;;;;;;;;8.09;56.20;98104.28;4471107;32;19999;-89
2022/12/09 01:38:19;;;;;;;;;;;;;;;8.11;56.10;98093.72;4457159;32;19983;-89
2022/12/09 01:40:45;;;;;;;;;;;;;;;8.13;55.98;98097.09;4471517;32;19987;-89
2022/12/09 01:43:17;;;;;;;;;;;;;;;8.16;56.04;98096.94;4471251;32;20344;-88
2022/12/09 01:45:42;;;;;;;;;;;;;;;8.15;55.73;98090.84;4471447;32;19978;-88
2022/12/09 01:48:12;;;;;;;;;;;;;;;7.79;56.60;98085.84;4471340;32;20019;-94
2022/12/09 01:50:38;;;;;;;;;;;;;;;7.91;56.24;98079.94;4457155;32;20080;-93
2022/12/09 01:53:04;;;;;;;;;;;;;;;7.94;56.26;98082.41;4457196;32;19990;-93
2022/12/09 01:55:29;;;;;;;;;;;;;;;7.96;56.33;98082.28;4457013;32;19991;-91
2022/12/09 01:57:55;;;;;;;;;;;;;;;8.02;56.33;98090.69;4457216;32;20256;-89
2022/12/09 02:00:20;;;;;;;;;;;;;;;8.03;56.40;98088.91;4457107;32;19980;-90
2022/12/09 02:02:46;;;;;;;;;;;;;;;8.03;56.51;98089.72;4456977;32;19964;-87
2022/12/09 02:05:11;;;;;;;;;;;;;;;8.07;56.47;98086.03;4471122;32;20013;-88
2022/12/09 02:07:36;;;;;;;;;;;;;;;8.11;56.40;98088.47;4471047;32;19972;-87
2022/12/09 02:10:02;;;;;;;;;;;;;;;8.07;56.39;98083.41;4457071;32;19980;-90
2022/12/09 02:12:37;;;;;;;;;;;;;;;8.12;56.44;98084.94;4456896;32;20040;-91
2022/12/09 02:15:07;;;;;;;;;;;;;;;8.16;56.32;98091.69;4456662;32;20027;-91
2022/12/09 02:17:39;;;;;;;;;;;;;;;7.80;56.98;98085.78;4443794;32;19984;-91
2022/12/09 02:20:16;;;;;;;;;;;;;;;7.84;56.90;98081.19;4471184;32;19976;-91
2022/12/09 02:22:46;;;;;;;;;;;;;;;7.86;56.79;98074.06;4470971;32;19979;-90
2022/12/09 02:25:14;;;;;;;;;;;;;;;7.81;56.96;98078.75;4470973;32;19988;-91
2022/12/09 02:27:42;;;;;;;;;;;;;;;7.90;56.81;98077.38;4471814;32;20311;-91
2022/12/09 02:30:14;;;;;;;;;;;;;;;7.94;56.93;98063.16;4458266;32;20531;-91
2022/12/09 02:33:03;;;;;;;;;;;;;;;8.00;56.98;98068.94;4458507;32;19979;-91
2022/12/09 02:35:49;;;;;;;;;;;;;;;8.05;56.90;98068.66;4458662;32;19972;-91
2022/12/09 02:38:15;;;;;;;;;;;;;;;8.07;56.70;98067.66;4472845;32;20031;-91
2022/12/09 02:40:59;;;;;;;;;;;;;;;8.07;56.83;98067.66;4458680;32;20031;-91
2022/12/09 02:43:25;;;;;;;;;;;;;;;8.08;56.77;98063.25;4472667;32;20006;-91
2022/12/09 02:45:50;;;;;;;;;;;;;;;8.08;56.82;98066.72;4458574;32;19968;-88
2022/12/09 02:48:17;;;;;;;;;;;;;;;8.17;56.67;98064.50;4458510;32;19994;-88
2022/12/09 02:50:42;;;;;;;;;;;;;;;8.17;56.62;98067.13;4458652;32;19988;-88
2022/12/09 02:53:09;;;;;;;;;;;;;;;8.19;56.63;98075.75;4458457;32;20298;-88
2022/12/09 02:55:34;;;;;;;;;;;;;;;8.22;56.44;98062.47;4458459;32;20003;-89
2022/12/09 02:58:00;;;;;;;;;;;;;;;8.22;56.46;98065.09;4472584;32;19975;-89
2022/12/09 03:00:26;;;;;;;;;;;;;;;8.27;56.52;98053.41;4458487;32;19984;-88
2022/12/09 03:02:53;;;;;;;;;;;;;;;8.27;56.38;98045.53;4472724;32;19991;-88
2022/12/09 03:05:24;;;;;;;;;;;;;;;8.24;56.45;98058.81;4458495;32;20024;-89
2022/12/09 03:08:08;;;;;;;;;;;;;;;8.28;56.45;98059.50;4472584;32;20003;-89
2022/12/09 03:10:36;;;;;;;;;;;;;;;8.31;56.48;98054.09;4472871;32;20321;-90
2022/12/09 03:13:09;;;;;;;;;;;;;;;8.33;56.64;98061.88;4472792;32;19976;-92
2022/12/09 03:15:34;;;;;;;;;;;;;;;8.34;56.63;98053.91;4445537;32;20047;-92
2022/12/09 03:18:00;;;;;;;;;;;;;;;8.30;56.84;98051.56;4468868;32;20003;-92
2022/12/09 03:20:25;;;;;;;;;;;;;;;8.34;57.00;98053.06;4471714;32;20052;-93
2022/12/09 03:22:51;;;;;;;;;;;;;;;8.36;56.95;98053.81;4478415;32;19978;-90
2022/12/09 03:25:18;;;;;;;;;;;;;;;8.30;57.10;98070.75;4487256;32;19972;-92
2022/12/09 03:27:47;;;;;;;;;;;;;;;8.35;57.09;98070.50;4488449;31;20319;-93
2022/12/09 03:30:13;;;;;;;;;;;;;;;8.31;57.19;98072.47;4487257;32;20002;-92
2022/12/09 03:32:38;;;;;;;;;;;;;;;8.33;57.27;98075.00;4487234;32;19979;-91
2022/12/09 03:35:23;;;;;;;;;;;;;;;8.12;57.64;98066.56;4487115;32;19980;-90
2022/12/09 03:37:49;;;;;;;;;;;;;;;7.94;58.59;98064.03;4487278;32;19987;-92
2022/12/09 03:40:15;;;;;;;;;;;;;;;8.17;58.06;98075.00;4486933;32;19984;-91
2022/12/09 03:42:43;;;;;;;;;;;;;;;8.26;57.88;98067.47;4487900;31;20017;-91
2022/12/09 03:45:08;;;;;;;;;;;;;;;8.30;57.94;98059.41;4486908;32;19979;-91
2022/12/09 03:47:34;;;;;;;;;;;;;;;8.33;57.86;98052.22;4487950;31;19972;-90
2022/12/09 03:49:59;;;;;;;;;;;;;;;8.39;57.79;98048.41;4486986;32;20233;-91
2022/12/09 03:52:25;;;;;;;;;;;;;;;8.26;57.99;98053.50;4487865;32;19963;-91
2022/12/09 03:54:55;;;;;;;;;;;;;;;8.17;58.08;98062.75;4473660;32;19963;-90
2022/12/09 03:57:20;;;;;;;;;;;;;;;8.28;58.06;98059.50;4473699;32;19976;-86
2022/12/09 03:59:49;;;;;;;;;;;;;;;8.28;58.21;98062.97;4487900;32;20038;-88
2022/12/09 04:02:14;;;;;;;;;;;;;;;8.30;58.25;98067.28;4473706;32;19976;-88
2022/12/09 04:04:40;;;;;;;;;;;;;;;8.16;58.40;98068.91;4473546;32;20311;-88
2022/12/09 04:07:05;;;;;;;;;;;;;;;7.88;59.04;98061.75;4487832;32;19976;-88
2022/12/09 04:09:30;;;;;;;;;;;;;;;8.05;58.70;98058.19;4473705;32;19984;-88
2022/12/09 04:11:56;;;;;;;;;;;;;;;8.11;58.61;98059.59;4487680;32;19989;-88
2022/12/09 04:14:21;;;;;;;;;;;;;;;8.15;58.63;98053.25;4487759;32;20425;-88
2022/12/09 04:16:46;;;;;;;;;;;;;;;8.10;58.77;98050.91;4487654;32;20020;-89
2022/12/09 04:19:11;;;;;;;;;;;;;;;8.15;58.74;98040.13;4487771;32;20351;-89
2022/12/09 04:21:37;;;;;;;;;;;;;;;8.17;58.81;98043.53;4487712;32;19980;-89
2022/12/09 04:24:02;;;;;;;;;;;;;;;8.13;58.92;98048.13;4487795;32;19967;-89
2022/12/09 04:26:27;;;;;;;;;;;;;;;7.67;60.12;98041.03;4487712;32;20023;-87
2022/12/09 04:28:52;;;;;;;;;;;;;;;7.93;59.46;98041.34;4487786;32;20011;-87
2022/12/09 04:31:18;;;;;;;;;;;;;;;7.96;59.40;98038.56;4487638;32;20007;-87
2022/12/09 04:33:43;;;;;;;;;;;;;;;8.04;59.22;98041.59;4487742;32;20006;-87
2022/12/09 04:36:10;;;;;;;;;;;;;;;8.07;59.36;98040.56;4487573;32;19987;-87
2022/12/09 04:38:35;;;;;;;;;;;;;;;8.13;59.31;98045.50;4487718;32;20427;-88
2022/12/09 04:41:00;;;;;;;;;;;;;;;8.14;59.25;98038.47;4487625;32;20007;-88
2022/12/09 04:43:26;;;;;;;;;;;;;;;8.14;59.23;98033.22;4487319;32;19956;-88
2022/12/09 04:45:51;;;;;;;;;;;;;;;8.12;59.17;98032.47;4487563;32;19972;-88
2022/12/09 04:48:16;;;;;;;;;;;;;;;7.50;60.78;98029.78;4487698;32;20213;-88
2022/12/09 04:50:41;;;;;;;;;;;;;;;7.75;60.05;98030.12;4486734;32;20018;-88
2022/12/09 04:53:07;;;;;;;;;;;;;;;7.90;59.73;98036.28;4487572;32;19979;-88
2022/12/09 04:55:32;;;;;;;;;;;;;;;7.94;59.75;98027.31;4487489;32;20012;-89
2022/12/09 04:57:57;;;;;;;;;;;;;;;8.00;59.63;98032.22;4487508;32;20048;-90
2022/12/09 05:00:22;;;;;;;;;;;;;;;7.88;59.63;98035.53;4487545;32;19971;-88
2022/12/09 05:02:48;;;;;;;;;;;;;;;7.83;59.60;98040.19;4487457;32;20295;-89
2022/12/09 05:05:13;;;;;;;;;;;;;;;7.92;59.61;98042.28;4487368;32;20027;-88
2022/12/09 05:07:38;;;;;;;;;;;;;;;7.97;59.58;98045.50;4487384;32;19967;-88
2022/12/09 05:10:04;;;;;;;;;;;;;;;8.06;59.51;98036.28;4472997;32;19971;-87
2022/12/09 05:12:29;;;;;;;;;;;;;;;8.10;59.50;98035.16;4487395;32;19964;-88
2022/12/09 05:14:54;;;;;;;;;;;;;;;8.08;59.56;98022.13;4473009;32;20002;-88
2022/12/09 05:17:19;;;;;;;;;;;;;;;8.12;59.67;98029.84;4473056;32;20225;-89
2022/12/09 05:19:45;;;;;;;;;;;;;;;8.16;59.56;98026.09;4487365;32;19968;-88
2022/12/09 05:22:10;;;;;;;;;;;;;;;8.15;59.58;98037.50;4487240;32;20005;-88
2022/12/09 05:24:35;;;;;;;;;;;;;;;8.18;59.52;98045.22;4487370;32;19982;-87
2022/12/09 05:27:00;;;;;;;;;;;;;;;8.17;59.57;98044.38;4487305;32;19968;-88
2022/12/09 05:29:26;;;;;;;;;;;;;;;8.19;59.65;98031.16;4472853;32;20335;-87
2022/12/09 05:31:51;;;;;;;;;;;;;;;8.18;59.70;98032.94;4487253;32;19971;-88
2022/12/09 05:34:16;;;;;;;;;;;;;;;8.20;59.56;98030.25;4487101;32;20266;-88
2022/12/09 05:36:42;;;;;;;;;;;;;;;8.18;59.46;98026.84;4487193;32;19994;-88
2022/12/09 05:39:07;;;;;;;;;;;;;;;8.19;59.44;98039.91;4487177;32;19979;-88
2022/12/09 05:41:32;;;;;;;;;;;;;;;8.16;59.40;98033.97;4487031;32;19960;-89
2022/12/09 05:43:58;;;;;;;;;;;;;;;8.15;59.42;98034.87;4472669;32;20369;-88
2022/12/09 05:46:23;;;;;;;;;;;;;;;8.19;59.56;98025.91;4487174;32;20340;-88
2022/12/09 05:48:48;;;;;;;;;;;;;;;8.17;59.62;98025.16;4487107;32;20012;-91
2022/12/09 05:51:20;;;;;;;;;;;;;;;8.02;59.82;98025.09;4473064;32;19986;-87
2022/12/09 05:53:46;;;;;;;;;;;;;;;8.08;59.60;98016.03;4486918;32;20299;-90
2022/12/09 05:56:21;;;;;;;;;;;;;;;8.14;59.73;98025.34;4486825;32;20012;-89
2022/12/09 05:58:46;;;;;;;;;;;;;;;8.18;59.70;98016.38;4472741;32;19979;-89
2022/12/09 06:01:12;;;;;;;;;;;;;;;8.22;59.74;98010.00;4486808;31;19961;-89
2022/12/09 06:03:37;;;;;;;;;;;;;;;8.21;59.85;98013.56;4472569;32;20025;-89
2022/12/09 06:06:06;;;;;;;;;;;;;;;8.22;59.79;98004.75;4472515;32;20010;-89
2022/12/09 06:08:31;;;;;;;;;;;;;;;8.22;59.78;98005.59;4472604;32;19983;-89
2022/12/09 06:10:57;;;;;;;;;;;;;;;8.20;59.85;98009.25;4486654;32;20011;-88
2022/12/09 06:13:22;;;;;;;;;;;;;;;8.18;59.94;98008.50;4486406;32;20339;-87
2022/12/09 06:15:47;;;;;;;;;;;;;;;8.21;60.16;98013.56;4486626;32;20254;-88
2022/12/09 06:18:12;;;;;;;;;;;;;;;8.21;60.23;98003.91;4472309;32;19972;-89
2022/12/09 06:20:39;;;;;;;;;;;;;;;8.23;60.25;98009.94;4486756;32;20043;-88
2022/12/09 06:23:04;;;;;;;;;;;;;;;8.25;60.18;98010.69;4486674;32;20387;-89
2022/12/09 06:25:29;;;;;;;;;;;;;;;8.30;60.19;98002.53;4486623;32;19968;-88
2022/12/09 06:27:54;;;;;;;;;;;;;;;8.31;60.30;98003.41;4472223;32;19975;-89
2022/12/09 06:30:20;;;;;;;;;;;;;;;8.30;60.31;97997.28;4487058;32;19983;-93
2022/12/09 06:32:45;;;;;;;;;;;;;;;8.34;60.25;97995.31;4486571;32;20008;-89
2022/12/09 06:35:10;;;;;;;;;;;;;;;8.33;60.38;98002.38;4459253;32;20259;-87
2022/12/09 06:37:35;;;;;;;;;;;;;;;8.35;60.47;98000.50;4486341;32;20310;-88
2022/12/09 06:40:01;;;;;;;;;;;;;;;8.35;60.57;98003.13;4486201;32;19963;-88
2022/12/09 06:42:26;;;;;;;;;;;;;;;8.38;60.55;98010.81;4486143;32;19976;-89
2022/12/09 06:44:51;;;;;;;;;;;;;;;8.41;60.55;98010.66;4471970;32;20031;-89
2022/12/09 06:47:16;;;;;;;;;;;;;;;8.38;60.59;98008.19;4472121;32;20017;-91
2022/12/09 06:49:42;;;;;;;;;;;;;;;8.41;60.68;98005.41;4486166;32;19972;-90
2022/12/09 06:52:07;;;;;;;;;;;;;;;8.46;60.76;98002.53;4486149;32;19983;-86
2022/12/09 06:54:32;;;;;;;;;;;;;;;8.53;60.60;98000.38;4484953;32;19998;-88
2022/12/09 06:56:57;;;;;;;;;;;;;;;8.54;60.84;98004.72;4470298;32;20610;-88
2022/12/09 06:59:23;;;;;;;;;;;;;;;8.51;61.12;98000.47;4470512;32;20000;-91
2022/12/09 07:01:49;;;;;;;;;;;;;;;8.53;60.99;97997.75;4470704;32;19981;-86
2022/12/09 07:04:14;;;;;;;;;;;;;;;8.56;61.06;97992.34;4469847;32;20244;-91
2022/12/09 07:06:40;;;;;;;;;;;;;;;8.58;61.02;97987.84;4469951;32;19986;-88
2022/12/09 07:09:10;;;;;;;;;;;;;;;8.59;61.12;97984.25;4470376;32;20364;-94
2022/12/09 07:11:35;;;;;;;;;;;;;;;8.60;61.01;97989.44;4469888;32;19992;-89
2022/12/09 07:14:00;;;;;;;;;;;;;;;8.61;60.74;97985.84;4456862;32;19984;-87
2022/12/09 07:16:26;;;;;;;;;;;;;;;8.61;60.73;97985.84;4471887;32;19986;-87
2022/12/09 07:18:51;;;;;;;;;;;;;;;8.61;60.63;97982.38;4458196;32;20012;-87
2022/12/09 07:21:17;;;;;;;;;;;;;;;8.60;60.64;97986.81;4458242;32;19988;-86
2022/12/09 07:23:43;;;;;;;;;;;;;;;8.60;60.73;97981.56;4472458;32;19972;-88
2022/12/09 07:26:08;;;;;;;;;;;;;;;8.63;60.71;97977.88;4472412;32;20034;-84
2022/12/09 07:28:33;;;;;;;;;;;;;;;8.63;60.64;97985.75;4472497;32;19983;-86
2022/12/09 07:30:59;;;;;;;;;;;;;;;8.69;60.49;97974.91;4458250;32;20260;-86
2022/12/09 07:33:24;;;;;;;;;;;;;;;8.69;60.48;97981.94;4458376;32;19976;-87
2022/12/09 07:35:52;;;;;;;;;;;;;;;8.71;60.45;97985.31;4472279;32;20102;-86
2022/12/09 07:38:18;;;;;;;;;;;;;;;8.68;60.70;97975.00;4472422;32;20002;-85
2022/12/09 07:40:43;;;;;;;;;;;;;;;8.71;60.61;97980.94;4458407;32;20004;-88
2022/12/09 07:43:08;;;;;;;;;;;;;;;8.69;60.76;97980.16;4474305;32;20011;-86
2022/12/09 07:45:33;;;;;;;;;;;;;;;8.65;60.72;97973.37;4475307;32;20260;-82
2022/12/09 07:47:59;;;;;;;;;;;;;;;8.71;60.71;97973.03;4476161;32;19968;-85
2022/12/09 07:50:24;;;;;;;;;;;;;;;8.73;60.85;97971.16;4473976;32;20015;-84
2022/12/09 07:52:49;;;;;;;;;;;;;;;8.71;60.88;97980.06;4466646;32;20007;-83
2022/12/09 07:55:14;;;;;;;;;;;;;;;8.72;61.00;97972.09;4472800;32;20335;-90
2022/12/09 07:57:40;;;;;;;;;;;;;;;8.64;61.24;97979.59;4477644;32;20193;-89
2022/12/09 08:00:05;;;;;;;;;;;;;;;8.74;61.32;97975.47;4444786;32;20039;-88
2022/12/09 08:02:31;;;;;;;;;;;;;;;8.77;61.40;97975.31;4475803;32;19980;-86
2022/12/09 08:04:56;;;;;;;;;;;;;;;8.81;61.50;97974.16;4463305;32;19980;-90
2022/12/09 08:07:22;;;;;;;;;;;;;;;8.82;61.38;97972.38;4475315;32;20034;-86
2022/12/09 08:09:47;;;;;;;;;;;;;;;8.89;61.20;97975.50;4471860;32;19993;-86
2022/12/09 08:12:12;;;;;;;;;;;;;;;8.90;61.09;97970.12;4468135;32;20016;-88
2022/12/09 08:14:37;;;;;;;;;;;;;;;8.98;60.88;97967.03;4464492;32;20020;-86
2022/12/09 08:17:03;;;;;;;;;;;;;;;8.94;60.98;97958.50;4467202;32;20042;-86
2022/12/09 08:19:28;;;;;;;;;;;;;;;8.79;61.63;97954.19;4473372;32;20347;-89
2022/12/09 08:21:54;;;;;;;;;;;;;;;8.99;61.07;97948.56;4463351;32;20011;-87
2022/12/09 08:24:19;;;;;;;;;;;;;;;9.04;60.83;97949.13;4475210;32;20038;-86
2022/12/09 08:26:44;;;;;;;;;;;;;;;9.09;60.70;97956.72;4472620;32;19984;-86
2022/12/09 08:29:10;;;;;;;;;;;;;;;9.13;60.66;97954.75;4458869;32;20026;-87
2022/12/09 08:31:36;;;;;;;;;;;;;;;9.16;60.69;97952.78;4471737;32;20365;-88
2022/12/09 08:34:02;;;;;;;;;;;;;;;9.21;60.49;97945.47;4468582;32;20007;-88
2022/12/09 08:36:27;;;;;;;;;;;;;;;9.23;60.52;97940.94;4460681;32;19998;-88
2022/12/09 08:38:53;;;;;;;;;;;;;;;9.29;60.38;97946.75;4461831;32;20259;-92
2022/12/09 08:41:21;;;;;;;;;;;;;;;9.37;60.37;97932.19;4462571;32;20098;-86
2022/12/09 08:43:46;;;;;;;;;;;;;;;9.29;60.54;97933.59;4473194;32;19972;-87
2022/12/09 08:46:12;;;;;;;;;;;;;;;9.43;60.17;97933.59;4465972;32;19987;-86
2022/12/09 08:48:38;;;;;;;;;;;;;;;9.55;59.72;97935.44;4473949;32;20050;-87
2022/12/09 08:51:03;;;;;;;;;;;;;;;9.55;59.70;97934.59;4471302;32;20275;-88
2022/12/09 08:53:29;;;;;;;;;;;;;;;9.59;59.43;97929.03;4470190;32;19992;-87
2022/12/09 08:55:54;;;;;;;;;;;;;;;9.56;59.48;97923.13;4463479;32;19999;-86
2022/12/09 08:58:19;;;;;;;;;;;;;;;9.52;59.30;97925.12;4447713;32;20359;-86
2022/12/09 09:00:45;;;;;;;;;;;;;;;9.43;59.82;97917.81;4476427;32;20126;-89
2022/12/09 09:03:10;;;;;;;;;;;;;;;9.44;59.68;97922.13;4475650;32;19976;-90
2022/12/09 09:05:35;;;;;;;;;;;;;;;9.43;59.71;97917.81;4468250;32;20004;-86
2022/12/09 09:08:00;;;;;;;;;;;;;;;9.44;59.65;97915.09;4472307;32;19984;-90
2022/12/09 09:10:26;;;;;;;;;;;;;;;9.41;59.76;97914.44;4474289;32;20011;-84
2022/12/09 09:12:51;;;;;;;;;;;;;;;9.41;59.69;97912.66;4479757;32;20007;-83
2022/12/09 09:15:16;;;;;;;;;;;;;;;9.43;59.70;97910.75;4468480;32;20015;-86
2022/12/09 09:17:41;;;;;;;;;;;;;;;9.40;59.78;97902.22;4460933;32;20068;-86
2022/12/09 09:20:07;;;;;;;;;;;;;;;9.40;59.92;97899.59;4448519;32;20339;-86
2022/12/09 09:22:32;;;;;;;;;;;;;;;9.36;60.11;97898.94;4478741;32;20015;-82
2022/12/09 09:24:58;;;;;;;;;;;;;;;9.31;60.07;97898.41;4463888;32;19980;-89
2022/12/09 09:27:23;;;;;;;;;;;;;;;9.23;60.47;97898.91;4468400;32;20026;-84
2022/12/09 09:29:48;;;;;;;;;;;;;;;9.23;60.92;97898.91;4461112;32;20392;-84
2022/12/09 09:32:13;;;;;;;;;;;;;;;9.25;60.87;97902.28;4477692;32;20282;-83
2022/12/09 09:34:39;;;;;;;;;;;;;;;9.24;60.90;97902.38;4474732;32;20003;-84
2022/12/09 09:37:04;;;;;;;;;;;;;;;9.23;60.94;97890.16;4469881;32;20089;-84
2022/12/09 09:39:29;;;;;;;;;;;;;;;9.18;61.04;97885.19;4471172;32;20017;-85
2022/12/09 09:41:58;;;;;;;;;;;;;;;9.22;60.81;97885.84;4474795;32;19972;-83
2022/12/09 09:44:34;;;;;;;;;;;;;;;9.21;60.75;97884.16;4449504;32;20010;-84
2022/12/09 09:47:00;;;;;;;;;;;;;;;9.22;60.79;97873.56;4478445;32;19988;-84
2022/12/09 09:49:36;;;;;;;;;;;;;;;9.24;60.73;97868.19;4461373;32;20010;-84
2022/12/09 09:52:03;;;;;;;;;;;;;;;9.02;61.23;97873.97;4463273;32;20071;-83
2022/12/09 09:54:28;;;;;;;;;;;;;;;9.17;60.73;97870.38;4469003;32;20304;-83
2022/12/09 09:57:14;;;;;;;;;;;;;;;9.21;60.72;97874.50;4460694;32;20368;-83
2022/12/09 09:59:43;;;;;;;;;;;;;;;9.18;60.82;97874.69;4458478;32;20672;-84
2022/12/09 10:02:11;;;;;;;;;;;;;;;9.22;60.85;97865.66;4462231;32;20387;-84
2022/12/09 10:04:56;;;;;;;;;;;;;;;9.19;61.04;97857.13;4469735;32;19988;-84
2022/12/09 10:07:25;;;;;;;;;;;;;;;9.24;61.06;97845.38;4459512;32;19980;-82
2022/12/09 10:09:56;;;;;;;;;;;;;;;9.30;61.10;97841.53;4461474;32;20354;-84
2022/12/09 10:12:41;;;;;;;;;;;;;;;9.30;61.09;97833.62;4464724;32;20295;-84
2022/12/09 10:15:09;;;;;;;;;;;;;;;9.31;61.14;97832.72;4465732;32;19988;-84
2022/12/09 10:17:35;;;;;;;;;;;;;;;9.18;61.41;97835.28;4462649;32;20011;-84
2022/12/09 10:20:14;;;;;;;;;;;;;;;9.28;60.85;97816.28;4460923;32;20039;-83
2022/12/09 10:22:41;;;;;;;;;;;;;;;8.60;62.75;97831.91;4472276;32;21487;-83
2022/12/09 10:25:20;;;;;;;;;;;;;;;9.06;61.24;97815.06;4462142;32;19990;-85
2022/12/09 10:27:47;;;;;;;;;;;;;;;8.53;62.86;97804.34;4462173;32;20007;-84
2022/12/09 10:30:34;;;;;;;;;;;;;;;8.98;61.78;97788.41;4466581;32;21619;-84
2022/12/09 10:32:59;;;;;;;;;;;;;;;8.96;61.88;97790.28;4470532;32;20003;-84
2022/12/09 10:35:25;;;;;;;;;;;;;;;8.39;63.05;97778.94;4473176;32;20003;-84
2022/12/09 10:37:51;;;;;;;;;;;;;;;8.95;61.63;97771.06;4472065;32;19972;-84
2022/12/09 10:40:34;;;;;;;;;;;;;;;8.99;61.64;97769.94;4475367;32;20363;-83
2022/12/09 10:45:45;;;;;;;;;;;;;;;9.14;61.49;97741.81;4461413;32;20056;-83
2022/12/09 10:48:19;;;;;;;;;;;;;;;8.77;62.28;97754.72;4471241;32;19980;-83
2022/12/09 10:50:45;;;;;;;;;;;;;;;8.83;62.17;97735.09;4477232;32;19988;-84
2022/12/09 10:53:11;;;;;;;;;;;;;;;8.62;62.63;97732.06;4476462;32;20063;-82
2022/12/09 10:55:37;;;;;;;;;;;;;;;8.87;62.26;97733.12;4464495;32;20109;-84
2022/12/09 10:58:09;;;;;;;;;;;;;;;9.01;61.90;97719.91;4463480;32;19999;-84
2022/12/09 11:00:34;;;;;;;;;;;;;;;8.98;61.88;97717.47;4480823;32;20514;-84
2022/12/09 11:02:59;;;;;;;;;;;;;;;9.04;61.64;97709.22;4476502;32;20035;-84
2022/12/09 11:05:26;;;;;;;;;;;;;;;9.07;61.63;97706.37;4470101;32;20355;-83
2022/12/09 11:07:52;;;;;;;;;;;;;;;8.87;61.95;97720.00;4463390;32;20021;-84
2022/12/09 11:10:18;;;;;;;;;;;;;;;8.73;61.85;97712.97;4472136;32;19984;-83
2022/12/09 11:12:43;;;;;;;;;;;;;;;8.69;62.42;97701.00;4462403;32;19982;-83
2022/12/09 11:15:34;;;;;;;;;;;;;;;8.95;61.77;97691.44;4459834;32;20086;-83
2022/12/09 11:18:16;;;;;;;;;;;;;;;8.99;61.79;97679.78;4462238;32;20327;-84
2022/12/09 11:20:41;;;;;;;;;;;;;;;9.09;61.18;97688.72;4461736;32;20006;-85
2022/12/09 11:23:14;;;;;;;;;;;;;;;9.07;61.32;97677.47;4474382;32;20008;-82
2022/12/09 11:26:09;;;;;;;;;;;;;;;9.09;61.44;97685.25;4460094;32;20276;-83
2022/12/09 11:28:35;;;;;;;;;;;;;;;8.55;63.04;97684.34;4396603;32;19993;-84
2022/12/09 11:31:17;;;;;;;;;;;;;;;8.42;63.39;97679.06;4402197;32;19993;-83
2022/12/09 11:33:55;;;;;;;;;;;;;;;8.74;62.49;97677.91;4379141;32;19985;-84
2022/12/09 11:36:22;;;;;;;;;;;;;;;8.44;63.30;97674.53;4380004;32;20062;-84
2022/12/09 11:38:47;;;;;;;;;;;;;;;8.44;63.30;97690.28;4382618;32;19993;-83
2022/12/09 11:42:12;;;;;;;;;;;;;;;8.53;62.77;97670.47;4387906;32;20045;-89
2022/12/09 11:44:01;;;;;;;;;;;;;;;8.70;62.27;97669.41;4395498;32;19997;-84
2022/12/09 11:46:27;;;;;;;;;;;;;;;8.76;62.15;97669.00;4378478;32;20032;-87
2022/12/09 11:48:56;;;;;;;;;;;;;;;8.82;62.02;97654.63;4386018;32;19989;-87
2022/12/09 11:51:28;;;;;;;;;;;;;;;8.72;62.32;97659.63;4397334;32;20001;-85
2022/12/09 11:53:55;;;;;;;;;;;;;;;8.83;62.21;97656.31;4396997;32;19997;-85
2022/12/09 11:56:24;;;;;;;;;;;;;;;8.70;62.59;97651.00;4382773;32;19981;-86
2022/12/09 11:58:51;;;;;;;;;;;;;;;8.79;62.34;97645.16;4394191;32;20017;-85
2022/12/09 12:01:22;;;;;;;;;;;;;;;8.85;62.08;97655.25;4393053;32;20349;-85
2022/12/09 12:03:49;;;;;;;;;;;;;;;8.69;62.59;97644.06;4390109;32;19985;-85
2022/12/09 12:06:20;;;;;;;;;;;;;;;8.18;64.08;97646.44;4465687;32;19972;-85
2022/12/09 12:09:05;;;;;;;;;;;;;;;8.55;62.87;97641.50;4463580;32;20421;-85
2022/12/09 12:11:33;;;;;;;;;;;;;;;8.69;62.55;97624.84;4463579;32;20081;-86
2022/12/09 12:14:00;;;;;;;;;;;;;;;8.69;62.59;97625.69;4463856;32;19972;-85
2022/12/09 12:16:30;;;;;;;;;;;;;;;8.78;62.56;97637.38;4462054;32;19984;-85
2022/12/09 12:19:11;;;;;;;;;;;;;;;8.84;62.48;97631.72;4465651;32;20445;-85
2022/12/09 12:21:36;;;;;;;;;;;;;;;8.85;62.23;97626.38;4449993;32;19995;-87
2022/12/09 12:24:20;;;;;;;;;;;;;;;8.82;62.49;97633.59;4470747;32;20064;-84
2022/12/09 12:27:04;;;;;;;;;;;;;;;8.89;62.25;97628.81;4469438;32;20053;-86
2022/12/09 12:29:32;;;;;;;;;;;;;;;8.90;62.31;97627.84;4486216;32;19983;-85
2022/12/09 12:32:16;;;;;;;;;;;;;;;8.92;62.43;97623.34;4484859;32;19972;-86
2022/12/09 12:34:50;;;;;;;;;;;;;;;8.81;62.60;97608.31;4463913;32;19994;-84
2022/12/09 12:37:16;;;;;;;;;;;;;;;8.79;62.44;97612.81;4487344;32;19963;-85
2022/12/09 12:39:47;;;;;;;;;;;;;;;8.80;62.45;97594.31;4487611;32;19991;-87
2022/12/09 12:42:21;;;;;;;;;;;;;;;8.88;62.44;97611.34;4487575;32;19987;-85
2022/12/09 12:47:36;;;;;;;;;;;;;;;8.57;63.37;97600.25;4474151;32;20311;-83
2022/12/09 12:50:02;;;;;;;;;;;;;;;8.77;62.99;97604.19;4487174;32;19994;-85
2022/12/09 12:52:27;;;;;;;;;;;;;;;8.88;62.74;97599.06;4481138;32;19996;-84
2022/12/09 12:55:00;;;;;;;;;;;;;;;8.94;62.55;97600.44;4480345;32;19975;-87
2022/12/09 12:57:28;;;;;;;;;;;;;;;8.92;62.46;97587.41;4460459;32;20031;-87
2022/12/09 13:00:01;;;;;;;;;;;;;;;8.99;62.38;97593.09;4470158;32;20055;-86
2022/12/09 13:02:41;;;;;;;;;;;;;;;9.05;62.27;97582.16;4463178;32;19994;-86
2022/12/09 13:05:16;;;;;;;;;;;;;;;9.07;62.20;97580.28;4476801;32;20330;-87